Cape Lisburne, Cape Lisburne LRRS Airport (PALU)

NameCape Lisburne LRRS Airport
CityCape Lisburne
CountryUnited States
ICAOPALU
IATALUR
Altitude5 m
CoordinatesGoogle Map
Live Air TrafficLiveATC.net
METARPALU 170955Z AUTO 15009KT 10SM BKN012 M02/M04 A2936
2019-10-17 09:55:00 Wind: Southeast (150°) 4.63 m/s - Visibility: 16093.4 m - Temperature: -2 °C - Dew point: -4 °C - Humidity: 86.4% - Pressure: 994.24 hPa

Sorry, no flights used the airport in this database.